createdAt,value
2018-07-20T00:00:23.717Z,20.58
2018-07-20T00:02:52.825Z,20.51
2018-07-20T00:05:21.921Z,20.37
2018-07-20T00:07:51.017Z,20.52
2018-07-20T00:10:20.102Z,20.42
2018-07-20T00:12:49.193Z,20.48
2018-07-20T00:15:18.289Z,20.31
2018-07-20T00:17:47.381Z,20.41
2018-07-20T00:20:16.485Z,20.39
2018-07-20T00:22:45.577Z,20.36
2018-07-20T00:25:14.666Z,20.48
2018-07-20T00:27:43.807Z,20.51
2018-07-20T00:30:12.893Z,20.61
2018-07-20T00:32:42.139Z,20.59
2018-07-20T00:35:11.254Z,20.54
2018-07-20T00:37:40.353Z,20.43
2018-07-20T00:40:09.469Z,20.34
2018-07-20T00:42:38.553Z,20.20
2018-07-20T00:45:07.932Z,20.37
2018-07-20T00:47:37.021Z,20.45
2018-07-20T00:50:06.878Z,20.46
2018-07-20T00:52:35.965Z,20.25
2018-07-20T00:55:05.137Z,20.20
2018-07-20T00:57:34.236Z,20.10
2018-07-20T01:00:03.377Z,20.22
2018-07-20T01:02:32.469Z,19.95
2018-07-20T01:05:01.553Z,19.94
2018-07-20T01:07:30.651Z,20.05
2018-07-20T01:09:59.738Z,19.98
2018-07-20T01:12:28.825Z,19.93
2018-07-20T01:14:57.929Z,19.98
2018-07-20T01:17:27.065Z,19.92
2018-07-20T01:19:56.181Z,20.08
2018-07-20T01:22:25.285Z,20.10
2018-07-20T01:24:54.385Z,19.84
2018-07-20T01:27:23.477Z,19.97
2018-07-20T01:29:52.573Z,19.78
2018-07-20T01:32:21.674Z,19.49
2018-07-20T01:34:50.790Z,19.48
2018-07-20T01:37:19.933Z,19.49
2018-07-20T01:39:49.013Z,19.65
2018-07-20T01:42:18.394Z,19.60
2018-07-20T01:44:47.502Z,19.66
2018-07-20T01:47:16.637Z,19.65
2018-07-20T01:49:45.713Z,19.53
2018-07-20T01:52:14.812Z,19.51
2018-07-20T01:54:43.921Z,19.51
2018-07-20T01:57:13.005Z,19.21
2018-07-20T01:59:42.125Z,19.42
2018-07-20T02:02:11.221Z,19.36
2018-07-20T02:04:40.313Z,19.11
2018-07-20T02:07:09.417Z,19.33
2018-07-20T02:09:39.355Z,19.29
2018-07-20T02:12:08.477Z,19.16
2018-07-20T02:14:37.557Z,19.17
2018-07-20T02:17:06.641Z,19.21
2018-07-20T02:19:35.739Z,19.35
2018-07-20T02:22:04.853Z,19.35
2018-07-20T02:24:34.196Z,19.26
2018-07-20T02:27:03.493Z,19.10
2018-07-20T02:29:32.600Z,19.12
2018-07-20T02:32:01.674Z,19.14
2018-07-20T02:34:30.765Z,19.18
2018-07-20T02:37:00.930Z,19.10
2018-07-20T02:39:30.030Z,19.18
2018-07-20T02:41:59.122Z,19.04
2018-07-20T02:44:28.210Z,18.97
2018-07-20T02:46:57.290Z,18.97
2018-07-20T02:49:26.400Z,18.95
2018-07-20T02:51:55.493Z,19.00
2018-07-20T02:54:24.574Z,18.78
2018-07-20T02:56:53.685Z,18.72
2018-07-20T02:59:22.805Z,18.67
2018-07-20T03:01:51.913Z,18.53
2018-07-20T03:04:21.009Z,18.64
2018-07-20T03:06:50.097Z,18.78
2018-07-20T03:09:19.450Z,18.57
2018-07-20T03:11:48.546Z,18.63
2018-07-20T03:14:17.713Z,18.65
2018-07-20T03:16:46.794Z,18.65
2018-07-20T03:19:15.890Z,18.68
2018-07-20T03:21:44.990Z,18.65
2018-07-20T03:24:14.081Z,18.66
2018-07-20T03:26:43.217Z,18.51
2018-07-20T03:29:12.301Z,18.74
2018-07-20T03:31:41.521Z,18.72
2018-07-20T03:34:10.613Z,18.66
2018-07-20T03:36:39.717Z,18.82
2018-07-20T03:39:09.735Z,18.74
2018-07-20T03:41:39.200Z,18.65
2018-07-20T03:44:08.729Z,18.69
2018-07-20T03:46:37.905Z,18.63
2018-07-20T03:49:07.069Z,18.57
2018-07-20T03:51:36.105Z,18.52
2018-07-20T03:54:05.229Z,18.63
2018-07-20T03:56:34.320Z,18.21
2018-07-20T03:59:03.427Z,18.26
2018-07-20T04:01:32.521Z,18.32
2018-07-20T04:04:01.617Z,18.44
2018-07-20T04:06:30.705Z,18.44
2018-07-20T04:08:59.819Z,18.51
2018-07-20T04:11:28.914Z,18.44
2018-07-20T04:13:58.007Z,18.38
2018-07-20T04:16:27.119Z,18.35
2018-07-20T04:18:56.237Z,18.48
2018-07-20T04:21:25.669Z,18.49
2018-07-20T04:23:54.765Z,18.50
2018-07-20T04:26:23.868Z,18.41
2018-07-20T04:28:52.964Z,18.47
2018-07-20T04:31:22.054Z,18.54
2018-07-20T04:33:51.157Z,18.30
2018-07-20T04:36:20.314Z,18.24
2018-07-20T04:38:49.477Z,18.20
2018-07-20T04:41:18.729Z,18.40
2018-07-20T04:43:47.870Z,18.43
2018-07-20T04:46:17.005Z,18.30
2018-07-20T04:48:46.093Z,18.32
2018-07-20T04:51:15.197Z,18.40
2018-07-20T04:53:44.281Z,18.31
2018-07-20T04:56:13.428Z,18.34
2018-07-20T04:58:42.588Z,18.34
2018-07-20T05:01:11.625Z,18.46
2018-07-20T05:03:40.751Z,18.48
2018-07-20T05:06:09.819Z,18.45
2018-07-20T05:08:38.917Z,18.42
2018-07-20T05:11:08.031Z,18.48
2018-07-20T05:13:37.125Z,18.53
2018-07-20T05:16:06.261Z,18.54
2018-07-20T05:18:35.350Z,18.56
2018-07-20T05:21:04.433Z,18.71
2018-07-20T05:23:33.558Z,18.57
2018-07-20T05:26:02.661Z,18.65
2018-07-20T05:28:31.825Z,18.74
2018-07-20T05:31:00.989Z,18.72
2018-07-20T05:33:30.080Z,18.88
2018-07-20T05:35:59.192Z,18.81
2018-07-20T05:38:28.333Z,18.79
2018-07-20T05:40:57.421Z,18.78
2018-07-20T05:43:26.539Z,18.79
2018-07-20T05:45:55.613Z,18.89
2018-07-20T05:48:24.749Z,18.91
2018-07-20T05:50:53.854Z,18.95
2018-07-20T05:53:22.982Z,19.00
2018-07-20T05:55:52.059Z,18.93
2018-07-20T05:58:21.201Z,19.03
2018-07-20T06:00:50.347Z,18.92
2018-07-20T06:03:19.490Z,19.07
2018-07-20T06:05:48.597Z,19.19
2018-07-20T06:08:17.698Z,19.25
2018-07-20T06:10:46.819Z,19.33
2018-07-20T06:13:15.905Z,19.36
2018-07-20T06:15:45.018Z,19.34
2018-07-20T06:18:14.113Z,19.23
2018-07-20T06:20:43.241Z,19.47
2018-07-20T06:23:12.374Z,19.58
2018-07-20T06:25:41.509Z,19.63
2018-07-20T06:28:10.618Z,19.65
2018-07-20T06:30:39.734Z,19.50
2018-07-20T06:33:08.844Z,19.45
2018-07-20T06:35:37.973Z,19.68
2018-07-20T06:38:07.516Z,19.47
2018-07-20T06:40:36.764Z,19.50
2018-07-20T06:43:05.827Z,19.44
2018-07-20T06:45:34.953Z,19.55
2018-07-20T06:48:04.039Z,19.81
2018-07-20T06:50:33.137Z,19.95
2018-07-20T06:53:02.253Z,20.12
2018-07-20T06:55:31.389Z,20.12
2018-07-20T06:58:00.495Z,20.18
2018-07-20T07:00:29.600Z,20.12
2018-07-20T07:02:58.698Z,19.77
2018-07-20T07:05:27.824Z,20.39
2018-07-20T07:07:56.921Z,20.80
2018-07-20T07:10:26.026Z,21.17
2018-07-20T07:12:55.581Z,21.38
2018-07-20T07:15:24.703Z,21.45
2018-07-20T07:17:53.793Z,21.74
2018-07-20T07:20:23.018Z,21.49
2018-07-20T07:22:52.182Z,20.79
2018-07-20T07:25:21.310Z,21.01
2018-07-20T07:27:50.407Z,21.03
2018-07-20T07:30:19.525Z,21.24
2018-07-20T07:32:48.633Z,21.05
2018-07-20T07:35:17.745Z,21.09
2018-07-20T07:37:46.861Z,22.30
2018-07-20T07:40:16.034Z,22.58
2018-07-20T07:42:45.124Z,22.60
2018-07-20T07:45:14.271Z,22.01
2018-07-20T07:47:43.349Z,22.17
2018-07-20T07:50:12.465Z,22.09
2018-07-20T07:52:41.613Z,23.63
2018-07-20T07:55:10.717Z,23.78
2018-07-20T07:57:39.799Z,22.45
2018-07-20T08:00:08.909Z,23.17
2018-07-20T08:02:38.014Z,24.12
2018-07-20T08:05:07.353Z,24.91
2018-07-20T08:07:36.513Z,25.28
2018-07-20T08:10:05.833Z,25.68
2018-07-20T08:12:34.801Z,24.48
2018-07-20T08:15:03.990Z,24.08
2018-07-20T08:17:33.149Z,23.44
2018-07-20T08:20:02.276Z,23.66
2018-07-20T08:22:31.409Z,23.45
2018-07-20T08:25:00.517Z,23.84
2018-07-20T08:27:29.657Z,24.70
2018-07-20T08:29:58.765Z,25.78
2018-07-20T08:32:27.901Z,25.05
2018-07-20T08:34:57.016Z,25.93
2018-07-20T08:37:26.150Z,26.26
2018-07-20T08:39:55.513Z,26.59
2018-07-20T08:42:24.837Z,26.91
2018-07-20T08:44:53.984Z,27.20
2018-07-20T08:47:23.097Z,27.74
2018-07-20T08:49:52.216Z,27.54
2018-07-20T08:52:21.326Z,26.69
2018-07-20T08:54:50.477Z,27.04
2018-07-20T08:57:19.601Z,27.81
2018-07-20T08:59:48.826Z,28.81
2018-07-20T09:02:17.919Z,29.40
2018-07-20T09:04:47.041Z,27.88
2018-07-20T09:07:16.192Z,27.36
2018-07-20T09:09:45.284Z,26.75
2018-07-20T09:12:14.486Z,27.79
2018-07-20T09:14:43.685Z,29.38
2018-07-20T09:17:12.829Z,29.92
2018-07-20T09:19:41.945Z,29.55
2018-07-20T09:22:11.029Z,30.52
2018-07-20T09:24:40.172Z,29.78
2018-07-20T09:27:09.317Z,30.08
2018-07-20T09:29:38.432Z,30.27
2018-07-20T09:32:07.537Z,30.49
2018-07-20T09:34:36.624Z,30.79
2018-07-20T09:37:05.973Z,31.07
2018-07-20T09:39:35.057Z,30.76
2018-07-20T09:42:04.185Z,30.79
2018-07-20T09:44:33.281Z,30.75
2018-07-20T09:47:02.369Z,29.38
2018-07-20T09:49:31.481Z,31.19
2018-07-20T09:52:00.577Z,31.34
2018-07-20T09:54:29.676Z,31.42
2018-07-20T09:56:58.786Z,30.94
2018-07-20T09:59:27.872Z,31.03
2018-07-20T10:01:57.058Z,31.16
2018-07-20T10:04:26.177Z,29.79
2018-07-20T10:06:55.318Z,30.73
2018-07-20T10:09:24.407Z,30.88
2018-07-20T10:11:53.515Z,31.74
2018-07-20T10:14:22.606Z,32.19
2018-07-20T10:16:51.713Z,32.06
2018-07-20T10:19:20.855Z,32.33
2018-07-20T10:21:49.949Z,32.34
2018-07-20T10:24:19.097Z,32.31
2018-07-20T10:26:48.200Z,32.05
2018-07-20T10:29:17.286Z,32.96
2018-07-20T10:31:46.386Z,32.24
2018-07-20T10:34:15.485Z,30.99
2018-07-20T10:36:44.678Z,31.36
2018-07-20T10:39:13.721Z,30.79
2018-07-20T10:41:42.821Z,30.59
2018-07-20T10:44:11.936Z,31.15
2018-07-20T10:46:41.026Z,31.65
2018-07-20T10:49:10.186Z,31.64
2018-07-20T10:51:39.304Z,30.96
2018-07-20T10:54:08.434Z,30.87
2018-07-20T10:56:37.549Z,30.70
2018-07-20T10:59:06.657Z,30.05
2018-07-20T11:01:35.883Z,30.17
2018-07-20T11:04:04.949Z,30.42
2018-07-20T11:06:34.365Z,29.91
2018-07-20T11:09:03.974Z,30.18
2018-07-20T11:11:33.065Z,30.50
2018-07-20T11:14:02.215Z,31.19
2018-07-20T11:16:31.297Z,31.53
2018-07-20T11:19:00.441Z,31.11
2018-07-20T11:21:29.533Z,31.11
2018-07-20T11:23:58.632Z,31.25
2018-07-20T11:26:27.705Z,31.19
2018-07-20T11:28:56.793Z,31.14
2018-07-20T11:31:25.901Z,30.96
2018-07-20T11:33:54.986Z,30.46
2018-07-20T11:36:24.141Z,31.59
2018-07-20T11:38:53.309Z,31.76
2018-07-20T11:41:22.400Z,31.46
2018-07-20T11:43:51.508Z,31.34
2018-07-20T11:46:20.605Z,31.39
2018-07-20T11:48:49.833Z,31.60
2018-07-20T11:51:18.925Z,31.17
2018-07-20T11:53:48.129Z,30.92
2018-07-20T11:56:17.216Z,30.85
2018-07-20T11:58:46.357Z,31.18
2018-07-20T12:01:15.475Z,31.78
2018-07-20T12:03:44.609Z,31.93
2018-07-20T12:06:13.721Z,31.43
2018-07-20T12:08:42.865Z,30.79
2018-07-20T12:11:12.006Z,30.87
2018-07-20T12:13:41.221Z,30.57
2018-07-20T12:16:10.313Z,30.20
2018-07-20T12:18:39.442Z,30.38
2018-07-20T12:21:08.542Z,29.86
2018-07-20T12:23:37.632Z,29.92
2018-07-20T12:26:06.769Z,30.38
2018-07-20T12:28:36.913Z,30.43
2018-07-20T12:31:06.015Z,30.46
2018-07-20T12:33:35.109Z,30.40
2018-07-20T12:36:04.257Z,30.40
2018-07-20T12:38:33.355Z,30.37
2018-07-20T12:41:02.432Z,30.44
2018-07-20T12:43:31.530Z,30.20
2018-07-20T12:46:00.681Z,30.36
2018-07-20T12:48:29.765Z,30.46
2018-07-20T12:50:58.867Z,30.59
2018-07-20T12:53:27.988Z,31.09
2018-07-20T12:55:57.113Z,31.07
2018-07-20T12:58:26.312Z,31.08
2018-07-20T13:00:55.376Z,31.15
2018-07-20T13:03:24.461Z,30.82
2018-07-20T13:05:53.854Z,30.68
2018-07-20T13:08:23.153Z,31.25
2018-07-20T13:10:52.458Z,31.79
2018-07-20T13:13:21.658Z,31.95
2018-07-20T13:15:50.757Z,31.74
2018-07-20T13:18:19.942Z,30.96
2018-07-20T13:20:49.085Z,30.97
2018-07-20T13:23:18.192Z,30.77
2018-07-20T13:25:47.281Z,31.19
2018-07-20T13:28:16.362Z,30.86
2018-07-20T13:30:45.454Z,30.58
2018-07-20T13:33:15.062Z,31.32
2018-07-20T13:35:45.061Z,31.51
2018-07-20T13:38:15.781Z,32.14
2018-07-20T13:40:44.910Z,31.58
2018-07-20T13:43:14.109Z,31.30
2018-07-20T13:45:43.246Z,31.91
2018-07-20T13:48:12.325Z,31.95
2018-07-20T13:50:41.429Z,31.53
2018-07-20T13:53:10.548Z,31.63
2018-07-20T13:55:39.653Z,31.79
2018-07-20T13:58:08.729Z,31.90
2018-07-20T14:00:37.837Z,32.15
2018-07-20T14:03:06.969Z,31.68
2018-07-20T14:05:36.137Z,32.08
2018-07-20T14:08:05.258Z,31.81
2018-07-20T14:10:34.539Z,31.73
2018-07-20T14:13:03.659Z,32.13
2018-07-20T14:15:32.781Z,32.25
2018-07-20T14:18:01.872Z,32.27
2018-07-20T14:20:31.025Z,32.48
2018-07-20T14:23:00.109Z,32.56
2018-07-20T14:25:29.197Z,32.26
2018-07-20T14:27:58.305Z,31.89
2018-07-20T14:30:27.413Z,31.03
2018-07-20T14:32:56.517Z,31.43
2018-07-20T14:35:25.726Z,31.00
2018-07-20T14:37:54.845Z,30.92
2018-07-20T14:40:23.961Z,31.00
2018-07-20T14:42:53.061Z,30.97
2018-07-20T14:45:22.241Z,31.27
2018-07-20T14:47:51.340Z,31.50
2018-07-20T14:50:20.433Z,31.29
2018-07-20T14:52:49.621Z,31.23
2018-07-20T14:55:18.730Z,31.14
2018-07-20T14:57:50.681Z,31.12
2018-07-20T15:00:19.871Z,30.97
2018-07-20T15:02:48.958Z,31.00
2018-07-20T15:05:18.065Z,30.99
2018-07-20T15:07:47.165Z,30.84
2018-07-20T15:10:16.261Z,30.79
2018-07-20T15:12:45.405Z,30.83
2018-07-20T15:15:14.537Z,31.10
2018-07-20T15:17:43.677Z,31.24
2018-07-20T15:20:12.809Z,30.88
2018-07-20T15:22:41.930Z,30.84
2018-07-20T15:25:11.037Z,30.93
2018-07-20T15:27:40.162Z,30.88
2018-07-20T15:30:09.266Z,31.09
2018-07-20T15:32:38.373Z,31.19
2018-07-20T15:35:07.469Z,31.09
2018-07-20T15:37:36.709Z,31.10
2018-07-20T15:40:05.841Z,30.93
2018-07-20T15:42:34.962Z,30.86
2018-07-20T15:45:04.226Z,30.59
2018-07-20T15:47:33.421Z,30.54
2018-07-20T15:50:02.406Z,30.51
2018-07-20T15:55:00.577Z,30.35
2018-07-20T15:57:30.007Z,30.32
2018-07-20T15:59:59.175Z,30.23
2018-07-20T16:02:28.221Z,30.20
2018-07-20T16:04:57.315Z,29.98
2018-07-20T16:07:26.433Z,29.93
2018-07-20T16:09:55.533Z,29.79
2018-07-20T16:12:24.657Z,29.72
2018-07-20T16:14:53.756Z,29.74
2018-07-20T16:17:22.895Z,29.72
2018-07-20T16:19:52.073Z,29.71
2018-07-20T16:22:21.158Z,29.75
2018-07-20T16:24:50.280Z,29.64
2018-07-20T16:27:19.361Z,29.72
2018-07-20T16:29:48.444Z,29.69
2018-07-20T16:32:17.612Z,29.65
2018-07-20T16:34:46.758Z,29.62
2018-07-20T16:37:15.878Z,29.62
2018-07-20T16:39:45.121Z,29.44
2018-07-20T16:42:14.253Z,29.39
2018-07-20T16:44:43.341Z,29.42
2018-07-20T16:47:12.545Z,29.33
2018-07-20T16:49:41.609Z,29.48
2018-07-20T16:52:10.729Z,29.21
2018-07-20T16:54:39.827Z,28.94
2018-07-20T16:57:09.217Z,28.84
2018-07-20T16:59:38.356Z,28.70
2018-07-20T17:02:07.505Z,28.84
2018-07-20T17:04:36.600Z,28.92
2018-07-20T17:07:05.882Z,28.24
2018-07-20T17:09:34.963Z,26.96
2018-07-20T17:12:04.066Z,26.76
2018-07-20T17:14:33.281Z,26.17
2018-07-20T17:17:02.391Z,25.15
2018-07-20T17:19:31.503Z,24.58
2018-07-20T17:22:00.649Z,24.06
2018-07-20T17:24:29.805Z,23.77
2018-07-20T17:26:58.913Z,23.50
2018-07-20T17:29:28.154Z,23.35
2018-07-20T17:31:57.261Z,23.14
2018-07-20T17:34:26.408Z,23.28
2018-07-20T17:36:55.496Z,23.11
2018-07-20T17:39:24.675Z,23.20
2018-07-20T17:41:54.357Z,23.35
2018-07-20T17:44:23.441Z,23.45
2018-07-20T17:46:52.558Z,23.39
2018-07-20T17:49:21.669Z,23.50
2018-07-20T17:51:50.831Z,23.32
2018-07-20T17:54:19.974Z,23.32
2018-07-20T17:56:49.116Z,23.41
2018-07-20T17:59:18.226Z,23.54
2018-07-20T18:01:47.317Z,23.77
2018-07-20T18:04:16.441Z,23.89
2018-07-20T18:06:45.536Z,23.97
2018-07-20T18:09:14.685Z,23.93
2018-07-20T18:11:43.789Z,23.91
2018-07-20T18:14:12.897Z,23.92
2018-07-20T18:16:42.352Z,23.91
2018-07-20T18:19:11.455Z,23.86
2018-07-20T18:21:40.562Z,24.04
2018-07-20T18:24:09.682Z,24.14
2018-07-20T18:26:38.777Z,24.05
2018-07-20T18:29:07.929Z,24.25
2018-07-20T18:31:37.102Z,24.01
2018-07-20T18:34:06.280Z,24.12
2018-07-20T18:36:35.406Z,24.14
2018-07-20T18:39:07.945Z,24.03
2018-07-20T18:41:37.497Z,24.08
2018-07-20T18:44:06.738Z,24.01
2018-07-20T18:46:36.122Z,23.78
2018-07-20T18:49:05.277Z,24.01
2018-07-20T18:51:34.417Z,23.75
2018-07-20T18:54:03.509Z,23.92
2018-07-20T18:56:32.598Z,23.89
2018-07-20T18:59:01.697Z,23.85
2018-07-20T19:01:30.836Z,23.60
2018-07-20T19:03:59.973Z,24.03
2018-07-20T19:06:29.541Z,23.82
2018-07-20T19:08:58.665Z,24.11
2018-07-20T19:11:27.813Z,24.21
2018-07-20T19:13:56.861Z,24.14
2018-07-20T19:16:25.957Z,24.15
2018-07-20T19:18:55.089Z,24.25
2018-07-20T19:21:26.166Z,24.33
2018-07-20T19:23:55.596Z,24.19
2018-07-20T19:26:24.637Z,24.29
2018-07-20T19:28:53.748Z,24.19
2018-07-20T19:31:22.941Z,24.11
2018-07-20T19:33:52.094Z,24.12
2018-07-20T19:36:21.185Z,24.15
2018-07-20T19:38:50.320Z,24.10
2018-07-20T19:41:19.441Z,23.96
2018-07-20T19:43:48.533Z,24.18
2018-07-20T19:46:17.650Z,24.30
2018-07-20T19:48:46.847Z,24.18
2018-07-20T19:51:15.956Z,24.10
2018-07-20T19:53:45.038Z,24.04
2018-07-20T19:56:14.169Z,24.01
2018-07-20T19:58:43.299Z,23.80
2018-07-20T20:01:12.409Z,23.76
2018-07-20T20:03:41.566Z,23.80
2018-07-20T20:06:10.713Z,23.66
2018-07-20T20:08:39.841Z,23.76
2018-07-20T20:11:09.186Z,23.52
2018-07-20T20:13:38.294Z,23.58
2018-07-20T20:16:07.411Z,23.66
2018-07-20T20:18:36.677Z,23.44
2018-07-20T20:21:05.937Z,23.35
2018-07-20T20:23:35.021Z,23.24
2018-07-20T20:26:04.140Z,23.40
2018-07-20T20:28:33.562Z,23.40
2018-07-20T20:34:00.597Z,23.08
2018-07-20T20:36:29.743Z,23.11
2018-07-20T20:38:59.123Z,23.18
2018-07-20T20:41:28.232Z,23.11
2018-07-20T20:43:57.472Z,23.17
2018-07-20T20:46:26.541Z,23.20
2018-07-20T20:48:55.781Z,23.09
2018-07-20T20:51:24.998Z,22.98
2018-07-20T20:53:54.126Z,23.14
2018-07-20T20:56:23.277Z,23.00
2018-07-20T20:58:52.420Z,22.92
2018-07-20T21:01:21.501Z,22.90
2018-07-20T21:03:50.621Z,22.99
2018-07-20T21:06:19.737Z,23.06
2018-07-20T21:08:48.863Z,22.87
2018-07-20T21:11:19.753Z,23.07
2018-07-20T21:13:48.908Z,23.16
2018-07-20T21:16:18.319Z,23.02
2018-07-20T21:18:47.585Z,23.14
2018-07-20T21:21:16.794Z,23.05
2018-07-20T21:23:45.966Z,22.73
2018-07-20T21:26:15.113Z,22.92
2018-07-20T21:28:44.240Z,23.04
2018-07-20T21:31:13.333Z,23.05
2018-07-20T21:33:43.281Z,22.66
2018-07-20T21:36:12.429Z,22.63
2018-07-20T21:38:41.596Z,22.46
2018-07-20T21:41:10.797Z,22.69
2018-07-20T21:43:39.920Z,22.74
2018-07-20T21:46:09.075Z,22.72
2018-07-20T21:48:38.212Z,22.89
2018-07-20T21:51:07.669Z,22.93
2018-07-20T21:53:36.801Z,22.88
2018-07-20T21:56:05.917Z,22.90
2018-07-20T21:58:35.034Z,23.00
2018-07-20T22:01:04.250Z,22.97
2018-07-20T22:03:33.329Z,22.85
2018-07-20T22:06:02.429Z,22.93
2018-07-20T22:08:31.518Z,22.92
2018-07-20T22:11:00.713Z,22.95
2018-07-20T22:13:29.834Z,22.93
2018-07-20T22:15:58.934Z,22.85
2018-07-20T22:18:28.022Z,22.80
2018-07-20T22:20:57.134Z,22.78
2018-07-20T22:23:26.277Z,22.89
2018-07-20T22:25:55.403Z,22.88
2018-07-20T22:28:24.533Z,22.90
2018-07-20T22:30:53.637Z,22.89
2018-07-20T22:33:22.748Z,22.81
2018-07-20T22:35:51.867Z,22.80
2018-07-20T22:38:20.988Z,22.84
2018-07-20T22:40:50.105Z,22.52
2018-07-20T22:43:19.225Z,22.67
2018-07-20T22:45:48.334Z,22.69
2018-07-20T22:48:17.447Z,22.66
2018-07-20T22:50:46.569Z,22.62
2018-07-20T22:53:15.645Z,22.77
2018-07-20T22:55:44.738Z,22.76
2018-07-20T22:58:13.857Z,22.53
2018-07-20T23:00:42.961Z,22.69
2018-07-20T23:03:12.105Z,22.56
2018-07-20T23:05:41.190Z,22.58
2018-07-20T23:08:10.286Z,22.42
2018-07-20T23:10:39.389Z,22.55
2018-07-20T23:13:08.491Z,22.54
2018-07-20T23:15:37.637Z,22.45
2018-07-20T23:18:07.010Z,22.44
2018-07-20T23:20:36.148Z,22.45
2018-07-20T23:23:05.269Z,22.43
2018-07-20T23:25:34.369Z,22.24
2018-07-20T23:28:03.534Z,22.26
2018-07-20T23:30:32.672Z,22.29
2018-07-20T23:33:01.741Z,22.20
2018-07-20T23:35:30.862Z,22.32
2018-07-20T23:37:59.969Z,22.38
2018-07-20T23:40:29.104Z,22.34
2018-07-20T23:42:58.213Z,22.30
2018-07-20T23:45:27.333Z,22.38
2018-07-20T23:47:56.458Z,22.16
2018-07-20T23:50:25.577Z,22.18
2018-07-20T23:52:54.702Z,22.23
2018-07-20T23:55:23.840Z,22.14
2018-07-20T23:57:53.006Z,22.04
